Fairbanks, IN (47849)

9:19 AM EST on February 14, 2016 (GMT -0500)
South side of Shelburn,IN | | Change Station
CLOSE
Current Station
Personal Weather Station
Location: Shelburn, IN
Elevation: 531 ft
Nearby Weather Stations
Active Advisory: Winter Weather Advisory

Elev 531 ft 39.17 °N, 87.39 °W | Updated 10 minutes ago

Overcast
Overcast
17.2 °F
Feels Like 7 °F
N
7.3
Wind Variable Wind from East

Today
High -- | Low -- °F
--% Chance of Precip.
Yesterday
High -- | Low -- °F
Precip. -- in
Pressure 30.33 in
Visibility 10.0 miles
Clouds Overcast 5500 ft
Windchill 7 °F
Dew Point 13 °F
Humidity 84%
Rainfall 0.00 in
Snow Depth Not available.
7:43 AM 6:25 PM
Waxing Crescent, 42% visible
METAR KRSV 141355Z AUTO 12013G17KT 10SM OVC055 M08/M10 A3033 RMK AO2 T10821105
Pressure 30.33 in
Visibility 10.0 miles
Clouds Overcast 5500 ft
Windchill 7 °F
Dew Point 13 °F
Humidity 84%
Rainfall 0.00 in
Snow Depth Not available.
7:43 AM 6:25 PM
Waxing Crescent, 42% visible
METAR KRSV 141355Z AUTO 12013G17KT 10SM OVC055 M08/M10 A3033 RMK AO2 T10821105

10-Day Weather Forecast

Almanac

Astronomy

Feb. 14, 2016 Rise Set
Actual Time
Civil Twilight
Nautical Twilight
Astronomical Twilight
Moon
Length of Visible Light
Length of Day
Tomorrow will be .
, % of the Moon is Illuminated

Today's Extremes

State Highs State Lows

Community

WunderPhotos

Upload Photos

1,892,797 photos uploaded!

WunderBlog® & News

Nearby

Air Quality

  Air Quality AQ Index Pollutant
Not available.

Snow Depth

Station Depth Elevation

Earthquake Activity

City Distance Mag. Time & Date
Minimum magnitude displayed is 2.5.

Coastal Water Temperatures

Place Temperature

Stations

Nearby Weather Stations

Station Location Temp. Windchill Dew Point Humidity Wind Precip. Elev Updated Type
                   

Watches & Warnings

Winter Weather Advisory
Issued: 3:30 AM EST Feb. 14, 2016 – National Weather Service

... Winter Weather Advisory remains in effect until midnight EST
tonight...

* timing... snow beginning towards sunrise Sunday and then
diminishing Sunday night.

* Main impact... snow covered ... roads and poor travel
conditions. Snow accumulations of up to three inches are
possible.

Precautionary/preparedness actions...

A Winter Weather Advisory for snow means that periods of snow
will cause primarily travel difficulties. Be prepared for snow
covered roads and limited visibilities... and use caution while
driving.